Time,TemperatureF,DewpointF,PressureIn,WindDirection,WindDirectionDegrees,WindSpeedMPH,WindSpeedGustMPH,Humidity,HourlyPrecipIn,Conditions,Clouds,dailyrainin,SoftwareType,DateUTC
2013-02-27 00:08:00,27.6,21.0,30.14,WNW,287,4.0,11.0,75,0.00,,,0.00,weatherlink.com 1.10,2013-02-27 07:08:00,
2013-02-27 00:23:00,27.5,20.0,30.14,WNW,298,9.0,13.0,74,0.00,,,0.00,weatherlink.com 1.10,2013-02-27 07:23:00,
2013-02-27 00:38:00,27.4,20.0,30.14,West,262,4.0,11.0,74,0.00,,,0.00,weatherlink.com 1.10,2013-02-27 07:38:00,
2013-02-27 00:53:00,27.5,20.0,30.14,WNW,283,5.0,13.0,74,0.00,,,0.00,weatherlink.com 1.10,2013-02-27 07:53:00,
2013-02-27 01:08:00,27.3,20.0,30.15,SSW,212,3.0,11.0,74,0.00,,,0.00,weatherlink.com 1.10,2013-02-27 08:08:00,
2013-02-27 01:23:00,27.2,20.0,30.15,WNW,285,5.0,14.0,74,0.00,,,0.00,weatherlink.com 1.10,2013-02-27 08:23:00,
2013-02-27 01:38:00,26.7,19.0,30.15,WNW,291,8.0,11.0,74,0.00,,,0.00,weatherlink.com 1.10,2013-02-27 08:38:00,
2013-02-27 01:53:00,26.1,19.0,30.16,WNW,283,5.0,12.0,75,0.00,,,0.00,weatherlink.com 1.10,2013-02-27 08:53:00,
2013-02-27 02:08:00,25.5,19.0,30.16,West,278,4.0,10.0,75,0.00,,,0.00,weatherlink.com 1.10,2013-02-27 09:08:00,
2013-02-27 02:23:00,25.3,18.0,30.16,West,273,4.0,12.0,75,0.00,,,0.00,weatherlink.com 1.10,2013-02-27 09:23:00,
2013-02-27 02:38:00,25.1,19.0,30.16,NW,315,4.0,9.0,76,0.00,,,0.00,weatherlink.com 1.10,2013-02-27 09:38:00,
2013-02-27 02:53:00,25.0,18.0,30.17,West,274,2.0,7.0,76,0.00,,,0.00,weatherlink.com 1.10,2013-02-27 09:53:00,
2013-02-27 03:08:00,23.6,18.0,30.18,West,263,0.0,2.0,78,0.00,,,0.00,weatherlink.com 1.10,2013-02-27 10:08:00,
2013-02-27 03:23:00,22.1,17.0,30.18,SSW,213,1.0,2.0,81,0.00,,,0.00,weatherlink.com 1.10,2013-02-27 10:23:00,
2013-02-27 03:38:00,21.1,16.0,30.17,West,269,3.0,3.0,82,0.00,,,0.00,weatherlink.com 1.10,2013-02-27 10:38:00,
2013-02-27 03:53:00,19.0,15.0,30.17,WSW,250,1.0,3.0,83,0.00,,,0.00,weatherlink.com 1.10,2013-02-27 10:53:00,
2013-02-27 04:08:00,-999.0,-99.9,30.17,North,-999,-999.0,-999.0,-999,0.00,,,0.00,weatherlink.com 1.10,2013-02-27 11:08:00,
2013-02-27 04:23:00,-999.0,-99.9,30.16,North,-999,-999.0,-999.0,-999,0.00,,,0.00,weatherlink.com 1.10,2013-02-27 11:23:00,
2013-02-27 04:39:00,-999.0,-99.9,30.16,North,-999,-999.0,-999.0,-999,0.00,,,0.00,weatherlink.com 1.10,2013-02-27 11:39:00,
2013-02-27 04:54:00,-999.0,-99.9,30.16,North,-999,-999.0,-999.0,-999,0.00,,,0.00,weatherlink.com 1.10,2013-02-27 11:54:00,
2013-02-27 05:09:00,-999.0,-99.9,30.16,North,-999,-999.0,-999.0,-999,0.00,,,0.00,weatherlink.com 1.10,2013-02-27 12:09:00,
2013-02-27 05:24:00,-999.0,-99.9,30.17,North,-999,-999.0,-999.0,-999,0.00,,,0.00,weatherlink.com 1.10,2013-02-27 12:24:00,
2013-02-27 05:39:00,-999.0,-99.9,30.17,North,-999,-999.0,-999.0,-999,0.00,,,0.00,weatherlink.com 1.10,2013-02-27 12:39:00,
2013-02-27 05:54:00,-999.0,-99.9,30.17,North,-999,-999.0,-999.0,-999,0.00,,,0.00,weatherlink.com 1.10,2013-02-27 12:54:00,
2013-02-27 06:09:00,-999.0,-99.9,30.17,North,-999,-999.0,-999.0,-999,0.00,,,0.00,weatherlink.com 1.10,2013-02-27 13:09:00,
2013-02-27 06:24:00,-999.0,-99.9,30.17,North,-999,-999.0,-999.0,-999,0.00,,,0.00,weatherlink.com 1.10,2013-02-27 13:24:00,
2013-02-27 06:39:00,-999.0,-99.9,30.18,North,-999,-999.0,-999.0,-999,0.00,,,0.00,weatherlink.com 1.10,2013-02-27 13:39:00,
2013-02-27 06:54:00,-999.0,-99.9,30.18,North,-999,-999.0,-999.0,-999,0.00,,,0.00,weatherlink.com 1.10,2013-02-27 13:54:00,
2013-02-27 07:09:00,19.3,15.0,30.18,WNW,282,3.0,6.0,84,0.00,,,0.00,weatherlink.com 1.10,2013-02-27 14:09:00,
2013-02-27 07:24:00,20.4,16.0,30.19,West,261,3.0,6.0,82,0.00,,,0.00,weatherlink.com 1.10,2013-02-27 14:24:00,
2013-02-27 07:39:00,21.3,16.0,30.20,West,264,1.0,6.0,81,0.00,,,0.00,weatherlink.com 1.10,2013-02-27 14:39:00,
2013-02-27 07:54:00,22.1,17.0,30.21,NW,304,5.0,10.0,79,0.00,,,0.00,weatherlink.com 1.10,2013-02-27 14:54:00,
2013-02-27 08:09:00,22.7,17.0,30.22,WNW,285,4.0,10.0,77,0.00,,,0.00,weatherlink.com 1.10,2013-02-27 15:09:00,
2013-02-27 08:24:00,23.5,17.0,30.22,West,268,3.0,10.0,76,0.00,,,0.00,weatherlink.com 1.10,2013-02-27 15:24:00,
2013-02-27 08:39:00,24.6,18.0,30.22,West,276,7.0,11.0,76,0.00,,,0.00,weatherlink.com 1.10,2013-02-27 15:39:00,
2013-02-27 08:54:00,25.8,18.0,30.22,WNW,302,7.0,10.0,73,0.00,,,0.00,weatherlink.com 1.10,2013-02-27 15:54:00,
2013-02-27 09:09:00,27.3,19.0,30.22,West,276,8.0,12.0,71,0.00,,,0.00,weatherlink.com 1.10,2013-02-27 16:09:00,
2013-02-27 09:24:00,28.5,20.0,30.22,WNW,290,4.0,10.0,71,0.00,,,0.00,weatherlink.com 1.10,2013-02-27 16:24:00,
2013-02-27 09:39:00,30.0,20.0,30.22,WNW,288,7.0,14.0,67,0.00,,,0.00,weatherlink.com 1.10,2013-02-27 16:39:00,
2013-02-27 09:54:00,31.6,21.0,30.22,WNW,289,6.0,11.0,65,0.00,,,0.00,weatherlink.com 1.10,2013-02-27 16:54:00,
2013-02-27 10:09:00,33.3,21.0,30.22,West,269,6.0,12.0,61,0.00,,,0.00,weatherlink.com 1.10,2013-02-27 17:09:00,
2013-02-27 10:24:00,34.1,20.0,30.21,WNW,283,5.0,19.0,56,0.00,,,0.00,weatherlink.com 1.10,2013-02-27 17:24:00,
2013-02-27 10:40:00,34.9,19.0,30.21,WNW,293,6.0,15.0,53,0.00,,,0.00,weatherlink.com 1.10,2013-02-27 17:40:00,
2013-02-27 10:55:00,35.8,19.0,30.21,WNW,293,9.0,16.0,50,0.00,,,0.00,weatherlink.com 1.10,2013-02-27 17:55:00,
2013-02-27 11:10:00,36.2,19.0,30.21,WNW,284,7.0,16.0,49,0.00,,,0.00,weatherlink.com 1.10,2013-02-27 18:10:00,
2013-02-27 11:25:00,36.3,18.0,30.21,WSW,256,4.0,13.0,48,0.00,,,0.00,weatherlink.com 1.10,2013-02-27 18:25:00,
2013-02-27 11:40:00,36.3,18.0,30.21,WNW,290,12.0,18.0,47,0.00,,,0.00,weatherlink.com 1.10,2013-02-27 18:40:00,
2013-02-27 11:55:00,37.2,17.0,30.20,West,281,7.0,16.0,44,0.00,,,0.00,weatherlink.com 1.10,2013-02-27 18:55:00,
2013-02-27 12:10:00,37.5,17.0,30.20,West,267,5.0,19.0,43,0.00,,,0.00,weatherlink.com 1.10,2013-02-27 19:10:00,
2013-02-27 12:25:00,38.1,17.0,30.20,WSW,252,7.0,15.0,42,0.00,,,0.00,weatherlink.com 1.10,2013-02-27 19:25:00,
2013-02-27 12:40:00,38.4,16.0,30.19,WNW,291,7.0,16.0,41,0.00,,,0.00,weatherlink.com 1.10,2013-02-27 19:40:00,
2013-02-27 12:55:00,38.9,16.0,30.19,West,270,8.0,18.0,39,0.00,,,0.00,weatherlink.com 1.10,2013-02-27 19:55:00,
2013-02-27 13:10:00,37.9,13.0,30.19,WNW,293,6.0,16.0,36,0.00,,,0.00,weatherlink.com 1.10,2013-02-27 20:10:00,
2013-02-27 13:25:00,39.5,14.0,30.19,WNW,288,8.0,16.0,36,0.00,,,0.00,weatherlink.com 1.10,2013-02-27 20:25:00,
2013-02-27 13:40:00,37.6,13.0,30.19,WSW,245,7.0,15.0,36,0.00,,,0.00,weatherlink.com 1.10,2013-02-27 20:40:00,
2013-02-27 13:55:00,37.3,12.0,30.18,WNW,283,5.0,15.0,36,0.00,,,0.00,weatherlink.com 1.10,2013-02-27 20:55:00,
2013-02-27 14:10:00,36.9,12.0,30.18,WNW,289,11.0,16.0,36,0.00,,,0.00,weatherlink.com 1.10,2013-02-27 21:10:00,
2013-02-27 14:25:00,37.8,13.0,30.18,NW,326,10.0,14.0,37,0.00,,,0.00,weatherlink.com 1.10,2013-02-27 21:25:00,
2013-02-27 14:40:00,39.1,13.0,30.18,NW,305,9.0,16.0,35,0.00,,,0.00,weatherlink.com 1.10,2013-02-27 21:40:00,
2013-02-27 14:55:00,39.7,14.0,30.18,NW,320,15.0,17.0,35,0.00,,,0.00,weatherlink.com 1.10,2013-02-27 21:55:00,
2013-02-27 15:10:00,39.1,13.0,30.18,WNW,290,10.0,14.0,34,0.00,,,0.00,weatherlink.com 1.10,2013-02-27 22:10:00,
2013-02-27 15:25:00,38.0,13.0,30.19,WNW,290,6.0,15.0,36,0.00,,,0.00,weatherlink.com 1.10,2013-02-27 22:25:00,
2013-02-27 15:40:00,37.9,13.0,30.19,WNW,300,9.0,17.0,36,0.00,,,0.00,weatherlink.com 1.10,2013-02-27 22:40:00,
2013-02-27 15:55:00,37.9,14.0,30.19,NNW,329,7.0,15.0,37,0.00,,,0.00,weatherlink.com 1.10,2013-02-27 22:55:00,
2013-02-27 16:10:00,37.2,13.0,30.19,WNW,288,6.0,16.0,37,0.00,,,0.00,weatherlink.com 1.10,2013-02-27 23:10:00,
2013-02-27 16:25:00,35.6,14.0,30.19,NW,311,5.0,13.0,41,0.00,,,0.00,weatherlink.com 1.10,2013-02-27 23:25:00,
2013-02-27 16:40:00,35.0,14.0,30.19,WNW,287,5.0,12.0,43,0.00,,,0.00,weatherlink.com 1.10,2013-02-27 23:40:00,
2013-02-27 16:55:00,34.7,15.0,30.19,NNW,332,3.0,10.0,44,0.00,,,0.00,weatherlink.com 1.10,2013-02-27 23:55:00,
2013-02-27 17:10:00,35.1,15.0,30.19,NW,309,5.0,8.0,44,0.00,,,0.00,weatherlink.com 1.10,2013-02-28 00:10:00,
2013-02-27 17:25:00,35.0,15.0,30.20,WNW,300,6.0,8.0,45,0.00,,,0.00,weatherlink.com 1.10,2013-02-28 00:25:00,
2013-02-27 17:40:00,33.5,15.0,30.20,WNW,294,4.0,7.0,47,0.00,,,0.00,weatherlink.com 1.10,2013-02-28 00:40:00,
2013-02-27 17:55:00,32.4,14.0,30.20,WNW,293,6.0,10.0,47,0.00,,,0.00,weatherlink.com 1.10,2013-02-28 00:55:00,
2013-02-27 18:10:00,31.6,14.0,30.20,NW,319,7.0,9.0,49,0.00,,,0.00,weatherlink.com 1.10,2013-02-28 01:10:00,
2013-02-27 18:25:00,30.9,15.0,30.21,WNW,290,4.0,8.0,51,0.00,,,0.00,weatherlink.com 1.10,2013-02-28 01:25:00,
2013-02-27 18:40:00,28.1,15.0,30.22,West,259,2.0,4.0,58,0.00,,,0.00,weatherlink.com 1.10,2013-02-28 01:40:00,
2013-02-27 18:55:00,27.6,16.0,30.22,West,277,1.0,3.0,61,0.00,,,0.00,weatherlink.com 1.10,2013-02-28 01:55:00,
2013-02-27 19:10:00,27.1,16.0,30.22,WNW,293,2.0,2.0,63,0.00,,,0.00,weatherlink.com 1.10,2013-02-28 02:10:00,
2013-02-27 19:25:00,26.2,16.0,30.22,West,260,3.0,3.0,65,0.00,,,0.00,weatherlink.com 1.10,2013-02-28 02:25:00,
2013-02-27 19:40:00,25.4,15.0,30.22,WSW,255,0.0,4.0,66,0.00,,,0.00,weatherlink.com 1.10,2013-02-28 02:40:00,
2013-02-27 19:55:00,25.0,15.0,30.22,West,268,2.0,4.0,66,0.00,,,0.00,weatherlink.com 1.10,2013-02-28 02:55:00,
2013-02-27 20:10:00,24.6,15.0,30.22,West,274,1.0,3.0,66,0.00,,,0.00,weatherlink.com 1.10,2013-02-28 03:10:00,
2013-02-27 20:25:00,24.1,15.0,30.21,WSW,255,1.0,2.0,67,0.00,,,0.00,weatherlink.com 1.10,2013-02-28 03:25:00,
2013-02-27 20:40:00,22.7,14.0,30.21,West,273,0.0,2.0,69,0.00,,,0.00,weatherlink.com 1.10,2013-02-28 03:40:00,
2013-02-27 20:55:00,21.9,14.0,30.21,West,271,0.0,1.0,72,0.00,,,0.00,weatherlink.com 1.10,2013-02-28 03:55:00,
2013-02-27 21:25:00,20.8,14.0,30.21,WSW,243,0.0,1.0,75,0.00,,,0.00,weatherlink.com 1.10,2013-02-28 04:25:00,
2013-02-27 21:40:00,20.6,14.0,30.21,WSW,253,0.0,1.0,74,0.00,,,0.00,weatherlink.com 1.10,2013-02-28 04:40:00,
2013-02-27 22:10:00,19.3,13.0,30.21,SW,218,0.0,1.0,77,0.00,,,0.00,weatherlink.com 1.10,2013-02-28 05:10:00,
2013-02-27 22:25:00,18.8,13.0,30.21,WSW,240,0.0,1.0,78,0.00,,,0.00,weatherlink.com 1.10,2013-02-28 05:25:00,
2013-02-27 22:40:00,18.5,13.0,30.22,WSW,238,0.0,0.0,79,0.00,,,0.00,weatherlink.com 1.10,2013-02-28 05:40:00,
2013-02-27 22:55:00,19.3,13.0,30.22,WNW,288,1.0,3.0,76,0.00,,,0.00,weatherlink.com 1.10,2013-02-28 05:55:00,
2013-02-27 23:10:00,18.7,13.0,30.23,West,260,0.0,2.0,79,0.00,,,0.00,weatherlink.com 1.10,2013-02-28 06:10:00,
2013-02-27 23:25:00,18.6,13.0,30.23,WNW,285,1.0,2.0,79,0.00,,,0.00,weatherlink.com 1.10,2013-02-28 06:25:00,
2013-02-27 23:40:00,17.6,12.0,30.23,West,261,0.0,1.0,78,0.00,,,0.00,weatherlink.com 1.10,2013-02-28 06:40:00,
2013-02-27 23:55:00,18.1,12.0,30.23,West,273,1.0,4.0,78,0.00,,,0.00,weatherlink.com 1.10,2013-02-28 06:55:00,